createdAt,value
2017-09-24T00:00:01.734Z,935.35
2017-09-24T00:00:29.877Z,935.34
2017-09-24T00:00:57.824Z,935.32
2017-09-24T00:01:25.769Z,935.31
2017-09-24T00:01:53.701Z,935.31
2017-09-24T00:02:21.552Z,935.3
2017-09-24T00:02:49.556Z,935.38
2017-09-24T00:03:17.699Z,935.35
2017-09-24T00:03:45.626Z,935.35
2017-09-24T00:04:13.781Z,935.34
2017-09-24T00:04:41.944Z,935.37
2017-09-24T00:05:09.884Z,935.37
2017-09-24T00:05:37.816Z,935.35
2017-09-24T00:06:05.856Z,935.36
2017-09-24T00:06:33.920Z,935.38
2017-09-24T00:07:01.950Z,935.38
2017-09-24T00:07:29.888Z,935.39
2017-09-24T00:07:57.927Z,935.37
2017-09-24T00:08:25.858Z,935.38
2017-09-24T00:08:53.960Z,935.38
2017-09-24T00:09:22.092Z,935.38
2017-09-24T00:09:50.234Z,935.42
2017-09-24T00:10:18.386Z,935.36
2017-09-24T00:10:46.317Z,935.38
2017-09-24T00:11:14.269Z,935.36
2017-09-24T00:11:42.192Z,935.38
2017-09-24T00:12:10.334Z,935.4
2017-09-24T00:12:38.409Z,935.38
2017-09-24T00:13:06.541Z,935.37
2017-09-24T00:13:34.682Z,935.38
2017-09-24T00:14:02.716Z,935.39
2017-09-24T00:14:30.651Z,935.37
2017-09-24T00:14:58.801Z,935.39
2017-09-24T00:15:26.738Z,935.4
2017-09-24T00:15:54.677Z,935.39
2017-09-24T00:16:22.735Z,935.39
2017-09-24T00:16:50.782Z,935.41
2017-09-24T00:17:18.979Z,935.38
2017-09-24T00:17:47.020Z,935.4
2017-09-24T00:18:14.854Z,935.36
2017-09-24T00:18:42.874Z,935.38
2017-09-24T00:19:10.711Z,935.35
2017-09-24T00:19:38.750Z,935.34
2017-09-24T00:20:06.787Z,935.31
2017-09-24T00:20:34.933Z,935.35
2017-09-24T00:21:02.867Z,935.38
2017-09-24T00:21:30.910Z,935.37
2017-09-24T00:21:58.958Z,935.34
2017-09-24T00:22:27.084Z,935.34
2017-09-24T00:22:55.214Z,935.37
2017-09-24T00:23:23.357Z,935.32
2017-09-24T00:23:51.409Z,935.32
2017-09-24T00:24:19.492Z,935.31
2017-09-24T00:24:47.441Z,935.31
2017-09-24T00:25:15.374Z,935.28
2017-09-24T00:25:43.536Z,935.32
2017-09-24T00:26:11.551Z,935.3
2017-09-24T00:26:39.726Z,935.33
2017-09-24T00:27:07.685Z,935.34
2017-09-24T00:27:35.715Z,935.36
2017-09-24T00:28:03.640Z,935.38
2017-09-24T00:28:31.694Z,935.38
2017-09-24T00:28:59.749Z,935.36
2017-09-24T00:29:27.804Z,935.36
2017-09-24T00:29:55.748Z,935.36
2017-09-24T00:30:23.885Z,935.38
2017-09-24T00:30:52.025Z,935.34
2017-09-24T00:31:19.889Z,935.37
2017-09-24T00:31:48.036Z,935.37
2017-09-24T00:32:16.201Z,935.34
2017-09-24T00:32:44.464Z,935.37
2017-09-24T00:33:12.618Z,935.36
2017-09-24T00:33:40.563Z,935.36
2017-09-24T00:34:08.485Z,935.36
2017-09-24T00:34:36.522Z,935.38
2017-09-24T00:35:04.442Z,935.35
2017-09-24T00:35:32.288Z,935.35
2017-09-24T00:36:00.125Z,935.42
2017-09-24T00:36:28.258Z,935.39
2017-09-24T00:36:56.298Z,935.41
2017-09-24T00:37:24.466Z,935.39
2017-09-24T00:37:52.388Z,935.41
2017-09-24T00:38:20.224Z,935.45
2017-09-24T00:38:48.048Z,935.42
2017-09-24T00:39:15.991Z,935.43
2017-09-24T00:39:44.016Z,935.43
2017-09-24T00:40:11.849Z,935.44
2017-09-24T00:40:40.395Z,935.44
2017-09-24T00:41:08.428Z,935.47
2017-09-24T00:41:36.345Z,935.45
2017-09-24T00:42:04.294Z,935.46
2017-09-24T00:42:32.448Z,935.47
2017-09-24T00:43:00.589Z,935.48
2017-09-24T00:43:28.393Z,935.45
2017-09-24T00:43:56.348Z,935.49
2017-09-24T00:44:24.413Z,935.45
2017-09-24T00:44:52.332Z,935.45
2017-09-24T00:45:20.395Z,935.44
2017-09-24T00:45:48.219Z,935.43
2017-09-24T00:46:16.226Z,935.43
2017-09-24T00:46:44.304Z,935.42
2017-09-24T00:47:12.449Z,935.43
2017-09-24T00:47:40.610Z,935.44
2017-09-24T00:48:09.093Z,935.42
2017-09-24T00:48:37.139Z,935.43
2017-09-24T00:49:05.117Z,935.45
2017-09-24T00:49:33.278Z,935.42
2017-09-24T00:50:01.417Z,935.41
2017-09-24T00:50:29.456Z,935.43
2017-09-24T00:50:57.608Z,935.46
2017-09-24T00:51:25.730Z,935.46
2017-09-24T00:51:53.758Z,935.43
2017-09-24T00:52:21.893Z,935.43
2017-09-24T00:52:50.064Z,935.46
2017-09-24T00:53:18.080Z,935.46
2017-09-24T00:53:46.020Z,935.45
2017-09-24T00:54:14.180Z,935.45
2017-09-24T00:54:42.126Z,935.45
2017-09-24T00:55:10.152Z,935.43
2017-09-24T00:55:38.058Z,935.44
2017-09-24T00:56:06.102Z,935.45
2017-09-24T00:56:34.021Z,935.45
2017-09-24T00:57:01.858Z,935.45
2017-09-24T00:57:29.775Z,935.44
2017-09-24T00:57:58.017Z,935.4
2017-09-24T00:58:25.943Z,935.46
2017-09-24T00:58:53.973Z,935.48
2017-09-24T00:59:22.111Z,935.47
2017-09-24T00:59:50.173Z,935.48
2017-09-24T01:00:18.323Z,935.46
2017-09-24T01:00:46.454Z,935.53
2017-09-24T01:01:14.503Z,935.49
2017-09-24T01:01:42.442Z,935.53
2017-09-24T01:02:10.278Z,935.5
2017-09-24T01:02:38.424Z,935.52
2017-09-24T01:03:06.451Z,935.5
2017-09-24T01:03:34.556Z,935.49
2017-09-24T01:04:02.595Z,935.54
2017-09-24T01:04:30.731Z,935.52
2017-09-24T01:04:58.865Z,935.58
2017-09-24T01:05:27.003Z,935.56
2017-09-24T01:05:55.165Z,935.59
2017-09-24T01:06:23.294Z,935.57
2017-09-24T01:06:51.591Z,935.58
2017-09-24T01:07:19.444Z,935.62
2017-09-24T01:07:47.790Z,935.62
2017-09-24T01:08:15.845Z,935.58
2017-09-24T01:08:43.881Z,935.58
2017-09-24T01:09:11.917Z,935.64
2017-09-24T01:09:39.993Z,935.59
2017-09-24T01:10:08.052Z,935.64
2017-09-24T01:10:36.201Z,935.67
2017-09-24T01:11:04.258Z,935.64
2017-09-24T01:11:32.207Z,935.67
2017-09-24T01:12:00.035Z,935.66
2017-09-24T01:12:28.050Z,935.67
2017-09-24T01:12:56.292Z,935.62
2017-09-24T01:13:24.341Z,935.64
2017-09-24T01:13:52.455Z,935.67
2017-09-24T01:14:20.591Z,935.67
2017-09-24T01:14:48.527Z,935.7
2017-09-24T01:15:16.543Z,935.67
2017-09-24T01:15:44.662Z,935.69
2017-09-24T01:16:12.726Z,935.65
2017-09-24T01:16:40.837Z,935.67
2017-09-24T01:17:08.779Z,935.67
2017-09-24T01:17:36.629Z,935.65
2017-09-24T01:18:04.674Z,935.67
2017-09-24T01:18:32.690Z,935.7
2017-09-24T01:19:00.714Z,935.72
2017-09-24T01:19:28.446Z,935.8
2017-09-24T01:19:56.283Z,935.7
2017-09-24T01:20:24.333Z,935.72
2017-09-24T01:20:52.346Z,935.68
2017-09-24T01:21:20.111Z,935.71
2017-09-24T01:21:48.125Z,935.73
2017-09-24T01:22:16.189Z,935.72
2017-09-24T01:22:44.358Z,935.76
2017-09-24T01:23:12.501Z,935.78
2017-09-24T01:23:40.435Z,935.8
2017-09-24T01:24:08.551Z,935.7
2017-09-24T01:24:36.687Z,935.73
2017-09-24T01:25:04.700Z,935.67
2017-09-24T01:25:32.603Z,935.75
2017-09-24T01:26:00.434Z,935.74
2017-09-24T01:26:28.466Z,935.79
2017-09-24T01:26:56.586Z,935.77
2017-09-24T01:27:24.621Z,935.74
2017-09-24T01:27:52.654Z,935.7
2017-09-24T01:28:20.679Z,935.74
2017-09-24T01:28:48.804Z,935.74
2017-09-24T01:29:16.848Z,935.7
2017-09-24T01:29:44.860Z,935.72
2017-09-24T01:30:12.789Z,935.72
2017-09-24T01:30:40.729Z,935.71
2017-09-24T01:31:08.838Z,935.75
2017-09-24T01:31:36.945Z,935.71
2017-09-24T01:32:04.859Z,935.71
2017-09-24T01:32:32.990Z,935.7
2017-09-24T01:33:01.032Z,935.73
2017-09-24T01:33:28.903Z,935.71
2017-09-24T01:33:57.034Z,935.77
2017-09-24T01:34:25.064Z,935.72
2017-09-24T01:34:53.075Z,935.72
2017-09-24T01:35:20.903Z,935.7
2017-09-24T01:35:48.940Z,935.74
2017-09-24T01:36:16.983Z,935.74
2017-09-24T01:36:45.035Z,935.76
2017-09-24T01:37:13.153Z,935.75
2017-09-24T01:37:41.224Z,935.76
2017-09-24T01:38:09.483Z,935.73
2017-09-24T01:38:37.524Z,935.73
2017-09-24T01:39:05.531Z,935.74
2017-09-24T01:39:33.664Z,935.75
2017-09-24T01:40:01.585Z,935.74
2017-09-24T01:40:29.611Z,935.77
2017-09-24T01:40:57.636Z,935.76
2017-09-24T01:41:25.663Z,935.74
2017-09-24T01:41:53.611Z,935.75
2017-09-24T01:42:21.644Z,935.74
2017-09-24T01:42:49.773Z,935.76
2017-09-24T01:43:17.906Z,935.76
2017-09-24T01:43:45.950Z,935.73
2017-09-24T01:44:13.872Z,935.73
2017-09-24T01:44:41.964Z,935.75
2017-09-24T01:45:09.918Z,935.72
2017-09-24T01:45:37.747Z,935.75
2017-09-24T01:46:05.752Z,935.73
2017-09-24T01:46:33.856Z,935.71
2017-09-24T01:47:01.905Z,935.71
2017-09-24T01:47:30.175Z,935.72
2017-09-24T01:47:58.041Z,935.75
2017-09-24T01:48:26.155Z,935.72
2017-09-24T01:48:54.297Z,935.74
2017-09-24T01:49:22.350Z,935.68
2017-09-24T01:49:50.451Z,935.71
2017-09-24T01:50:18.287Z,935.66
2017-09-24T01:50:46.422Z,935.64
2017-09-24T01:51:14.552Z,935.64
2017-09-24T01:51:42.705Z,935.62
2017-09-24T01:52:10.873Z,935.66
2017-09-24T01:52:38.778Z,935.64
2017-09-24T01:53:06.797Z,935.61
2017-09-24T01:53:34.840Z,935.64
2017-09-24T01:54:02.908Z,935.65
2017-09-24T01:54:31.052Z,935.61
2017-09-24T01:54:58.988Z,935.68
2017-09-24T01:55:27.007Z,935.65
2017-09-24T01:55:55.142Z,935.66
2017-09-24T01:56:23.077Z,935.65
2017-09-24T01:56:51.111Z,935.64
2017-09-24T01:57:19.076Z,935.68
2017-09-24T01:57:47.231Z,935.65
2017-09-24T01:58:15.469Z,935.69
2017-09-24T01:58:43.505Z,935.66
2017-09-24T01:59:11.450Z,935.69
2017-09-24T01:59:39.593Z,935.65
2017-09-24T02:00:07.617Z,935.67
2017-09-24T02:00:35.545Z,935.63
2017-09-24T02:01:03.664Z,935.65
2017-09-24T02:01:31.604Z,935.63
2017-09-24T02:01:59.656Z,935.64
2017-09-24T02:02:27.476Z,935.64
2017-09-24T02:02:55.561Z,935.61
2017-09-24T02:03:23.784Z,935.63
2017-09-24T02:03:51.827Z,935.64
2017-09-24T02:04:19.551Z,935.63
2017-09-24T02:04:47.501Z,935.65
2017-09-24T02:05:15.361Z,935.65
2017-09-24T02:05:43.421Z,935.61
2017-09-24T02:06:11.442Z,935.61
2017-09-24T02:06:39.372Z,935.6
2017-09-24T02:07:07.396Z,935.57
2017-09-24T02:07:35.336Z,935.57
2017-09-24T02:08:03.262Z,935.6
2017-09-24T02:08:31.306Z,935.61
2017-09-24T02:08:59.258Z,935.61
2017-09-24T02:09:27.315Z,935.61
2017-09-24T02:09:55.338Z,935.64
2017-09-24T02:10:23.383Z,935.61
2017-09-24T02:10:51.439Z,935.57
2017-09-24T02:11:19.461Z,935.55
2017-09-24T02:11:47.284Z,935.58
2017-09-24T02:12:15.292Z,935.61
2017-09-24T02:12:43.145Z,935.59
2017-09-24T02:13:10.981Z,935.61
2017-09-24T02:13:39.046Z,935.61
2017-09-24T02:14:07.089Z,935.63
2017-09-24T02:14:34.926Z,935.59
2017-09-24T02:15:03.013Z,935.61
2017-09-24T02:15:31.072Z,935.59
2017-09-24T02:15:59.179Z,935.64
2017-09-24T02:16:27.011Z,935.62
2017-09-24T02:16:55.066Z,935.58
2017-09-24T02:17:23.098Z,935.57
2017-09-24T02:17:51.259Z,935.57
2017-09-24T02:18:19.326Z,935.56
2017-09-24T02:18:47.352Z,935.55
2017-09-24T02:19:15.264Z,935.52
2017-09-24T02:19:43.396Z,935.51
2017-09-24T02:20:11.437Z,935.49
2017-09-24T02:20:39.597Z,935.48
2017-09-24T02:21:07.730Z,935.44
2017-09-24T02:21:35.869Z,935.52
2017-09-24T02:22:03.899Z,935.51
2017-09-24T02:22:32.054Z,935.5
2017-09-24T02:23:00.187Z,935.48
2017-09-24T02:23:28.321Z,935.48
2017-09-24T02:23:56.177Z,935.51
2017-09-24T02:24:24.337Z,935.52
2017-09-24T02:24:52.370Z,935.48
2017-09-24T02:25:20.535Z,935.5
2017-09-24T02:25:48.492Z,935.45
2017-09-24T02:26:16.455Z,935.45
2017-09-24T02:26:44.307Z,935.45
2017-09-24T02:27:12.434Z,935.46
2017-09-24T02:27:40.493Z,935.45
2017-09-24T02:28:08.545Z,935.42
2017-09-24T02:28:36.849Z,935.43
2017-09-24T02:29:04.786Z,935.44
2017-09-24T02:29:32.604Z,935.4
2017-09-24T02:30:00.656Z,935.39
2017-09-24T02:30:28.678Z,935.45
2017-09-24T02:30:56.607Z,935.41
2017-09-24T02:31:24.666Z,935.43
2017-09-24T02:31:52.627Z,935.42
2017-09-24T02:32:20.683Z,935.42
2017-09-24T02:32:48.828Z,935.41
2017-09-24T02:33:16.864Z,935.41
2017-09-24T02:33:45.003Z,935.42
2017-09-24T02:34:13.048Z,935.44
2017-09-24T02:34:41.072Z,935.47
2017-09-24T02:35:09.135Z,935.45
2017-09-24T02:35:37.071Z,935.44
2017-09-24T02:36:05.235Z,935.45
2017-09-24T02:36:33.364Z,935.42
2017-09-24T02:37:01.416Z,935.45
2017-09-24T02:37:29.535Z,935.44
2017-09-24T02:37:57.564Z,935.46
2017-09-24T02:38:25.716Z,935.45
2017-09-24T02:38:53.859Z,935.46
2017-09-24T02:39:22.012Z,935.44
2017-09-24T02:39:50.186Z,935.45
2017-09-24T02:40:18.130Z,935.45
2017-09-24T02:40:46.079Z,935.44
2017-09-24T02:41:14.202Z,935.44
2017-09-24T02:41:42.041Z,935.44
2017-09-24T02:42:10.093Z,935.47
2017-09-24T02:42:38.239Z,935.42
2017-09-24T02:43:06.369Z,935.41
2017-09-24T02:43:34.431Z,935.44
2017-09-24T02:44:02.275Z,935.38
2017-09-24T02:44:30.312Z,935.42
2017-09-24T02:44:58.345Z,935.41
2017-09-24T02:45:26.460Z,935.41
2017-09-24T02:45:54.592Z,935.41
2017-09-24T02:46:22.548Z,935.42
2017-09-24T02:46:50.478Z,935.39
2017-09-24T02:47:18.415Z,935.38
2017-09-24T02:47:46.238Z,935.38
2017-09-24T02:48:14.163Z,935.45
2017-09-24T02:48:42.436Z,935.38
2017-09-24T02:49:10.453Z,935.38
2017-09-24T02:49:38.490Z,935.41
2017-09-24T02:50:06.608Z,935.38
2017-09-24T02:50:34.640Z,935.39
2017-09-24T02:51:02.714Z,935.38
2017-09-24T02:51:30.721Z,935.36
2017-09-24T02:51:58.542Z,935.33
2017-09-24T02:52:26.470Z,935.36
2017-09-24T02:52:54.510Z,935.35
2017-09-24T02:53:22.557Z,935.36
2017-09-24T02:53:50.796Z,935.38
2017-09-24T02:54:18.966Z,935.36
2017-09-24T02:54:47.011Z,935.32
2017-09-24T02:55:15.050Z,935.37
2017-09-24T02:55:43.165Z,935.38
2017-09-24T02:56:11.278Z,935.36
2017-09-24T02:56:38.987Z,935.34
2017-09-24T02:57:06.918Z,935.37
2017-09-24T02:57:34.835Z,935.35
2017-09-24T02:58:02.970Z,935.35
2017-09-24T02:58:30.914Z,935.34
2017-09-24T02:58:58.858Z,935.36
2017-09-24T02:59:26.982Z,935.34
2017-09-24T02:59:55.000Z,935.41
2017-09-24T03:00:22.930Z,935.42
2017-09-24T03:00:50.866Z,935.42
2017-09-24T03:01:19.387Z,935.44
2017-09-24T03:01:47.329Z,935.42
2017-09-24T03:02:15.249Z,935.44
2017-09-24T03:02:43.196Z,935.44
2017-09-24T03:03:11.249Z,935.46
2017-09-24T03:03:39.292Z,935.46
2017-09-24T03:04:07.553Z,935.45
2017-09-24T03:04:35.555Z,935.47
2017-09-24T03:05:03.579Z,935.45
2017-09-24T03:05:31.726Z,935.5
2017-09-24T03:05:59.752Z,935.51
2017-09-24T03:06:27.672Z,935.49
2017-09-24T03:06:55.595Z,935.49
2017-09-24T03:07:23.622Z,935.48
2017-09-24T03:07:51.734Z,935.48
2017-09-24T03:08:19.671Z,935.51
2017-09-24T03:08:47.804Z,935.53
2017-09-24T03:09:15.833Z,935.53
2017-09-24T03:09:43.864Z,935.49
2017-09-24T03:10:11.890Z,935.47
2017-09-24T03:10:39.992Z,935.51
2017-09-24T03:11:08.033Z,935.52
2017-09-24T03:11:35.864Z,935.48
2017-09-24T03:12:03.682Z,935.49
2017-09-24T03:12:31.706Z,935.47
2017-09-24T03:12:59.534Z,935.47
2017-09-24T03:13:27.352Z,935.52
2017-09-24T03:13:55.410Z,935.52
2017-09-24T03:14:23.369Z,935.49
2017-09-24T03:14:51.316Z,935.51
2017-09-24T03:15:19.351Z,935.52
2017-09-24T03:15:47.382Z,935.51
2017-09-24T03:16:15.533Z,935.52
2017-09-24T03:16:43.565Z,935.52
2017-09-24T03:17:11.691Z,935.54
2017-09-24T03:17:39.754Z,935.52
2017-09-24T03:18:07.771Z,935.49
2017-09-24T03:18:35.812Z,935.49
2017-09-24T03:19:03.768Z,935.52
2017-09-24T03:19:31.694Z,935.52
2017-09-24T03:19:59.722Z,935.53
2017-09-24T03:20:27.754Z,935.52
2017-09-24T03:20:55.874Z,935.55
2017-09-24T03:21:23.805Z,935.55
2017-09-24T03:21:51.838Z,935.54
2017-09-24T03:22:19.965Z,935.58
2017-09-24T03:22:48.016Z,935.58
2017-09-24T03:23:15.959Z,935.56
2017-09-24T03:23:43.965Z,935.54
2017-09-24T03:24:12.090Z,935.57
2017-09-24T03:24:39.996Z,935.53
2017-09-24T03:25:07.931Z,935.53
2017-09-24T03:25:35.954Z,935.51
2017-09-24T03:26:03.994Z,935.55
2017-09-24T03:26:31.926Z,935.56
2017-09-24T03:27:00.043Z,935.57
2017-09-24T03:27:27.986Z,935.52
2017-09-24T03:27:55.917Z,935.51
2017-09-24T03:28:23.977Z,935.5
2017-09-24T03:28:51.937Z,935.49
2017-09-24T03:29:19.958Z,935.52
2017-09-24T03:29:47.966Z,935.52
2017-09-24T03:30:16.016Z,935.47
2017-09-24T03:30:44.072Z,935.45
2017-09-24T03:31:12.009Z,935.44
2017-09-24T03:31:40.153Z,935.45
2017-09-24T03:32:08.293Z,935.41
2017-09-24T03:32:36.352Z,935.38
2017-09-24T03:33:04.375Z,935.4
2017-09-24T03:33:32.535Z,935.35
2017-09-24T03:34:00.784Z,935.35
2017-09-24T03:34:28.919Z,935.34
2017-09-24T03:34:56.857Z,935.31
2017-09-24T03:35:24.912Z,935.29
2017-09-24T03:35:53.003Z,935.29
2017-09-24T03:36:21.038Z,935.27
2017-09-24T03:36:49.187Z,935.25
2017-09-24T03:37:17.131Z,935.25
2017-09-24T03:37:45.172Z,935.26
2017-09-24T03:38:13.324Z,935.21
2017-09-24T03:38:41.250Z,935.22
2017-09-24T03:39:09.194Z,935.26
2017-09-24T03:39:37.123Z,935.22
2017-09-24T03:40:05.254Z,935.25
2017-09-24T03:40:33.375Z,935.22
2017-09-24T03:41:01.407Z,935.2
2017-09-24T03:41:29.543Z,935.24
2017-09-24T03:41:57.677Z,935.22
2017-09-24T03:42:25.725Z,935.2
2017-09-24T03:42:53.847Z,935.21
2017-09-24T03:43:21.705Z,935.21
2017-09-24T03:43:49.865Z,935.19
2017-09-24T03:44:17.986Z,935.2
2017-09-24T03:44:46.020Z,935.17
2017-09-24T03:45:14.085Z,935.21
2017-09-24T03:45:42.027Z,935.16
2017-09-24T03:46:10.177Z,935.18
2017-09-24T03:46:38.050Z,935.15
2017-09-24T03:47:06.196Z,935.14
2017-09-24T03:47:33.924Z,935.16
2017-09-24T03:48:02.065Z,935.15
2017-09-24T03:48:29.899Z,935.14
2017-09-24T03:48:57.829Z,935.21
2017-09-24T03:49:26.089Z,935.19
2017-09-24T03:49:54.010Z,935.13
2017-09-24T03:50:22.053Z,935.1
2017-09-24T03:50:50.098Z,935.1
2017-09-24T03:51:18.250Z,935.14
2017-09-24T03:51:46.351Z,935.09
2017-09-24T03:52:14.385Z,935.09
2017-09-24T03:52:42.407Z,935.07
2017-09-24T03:53:10.327Z,935.08
2017-09-24T03:53:38.334Z,935.04
2017-09-24T03:54:06.451Z,935.04
2017-09-24T03:54:34.571Z,935.06
2017-09-24T03:55:02.599Z,935.06
2017-09-24T03:55:30.744Z,935.03
2017-09-24T03:55:58.886Z,935.07
2017-09-24T03:56:26.961Z,935.07
2017-09-24T03:56:54.943Z,935.07
2017-09-24T03:57:23.089Z,935.12
2017-09-24T03:57:51.009Z,935.03
2017-09-24T03:58:19.164Z,935.06
2017-09-24T03:58:46.882Z,935.01
2017-09-24T03:59:14.929Z,935.03
2017-09-24T03:59:42.884Z,935.01
2017-09-24T04:00:11.025Z,935.06
2017-09-24T04:00:39.062Z,935.01
2017-09-24T04:01:06.877Z,935.03
2017-09-24T04:01:34.891Z,934.97
2017-09-24T04:02:03.027Z,934.97
2017-09-24T04:02:30.972Z,934.99
2017-09-24T04:02:59.034Z,935
2017-09-24T04:03:26.853Z,935.03
2017-09-24T04:03:54.898Z,934.98
2017-09-24T04:04:23.047Z,934.97
2017-09-24T04:04:51.085Z,934.99
2017-09-24T04:05:18.800Z,934.95
2017-09-24T04:05:46.856Z,934.99
2017-09-24T04:06:14.914Z,935.1
2017-09-24T04:06:42.981Z,935.04
2017-09-24T04:07:11.021Z,934.99
2017-09-24T04:07:38.970Z,935
2017-09-24T04:08:07.019Z,935.02
2017-09-24T04:08:34.964Z,935.04
2017-09-24T04:09:02.964Z,935.02
2017-09-24T04:09:31.203Z,935.01
2017-09-24T04:09:59.357Z,935.05
2017-09-24T04:10:27.374Z,935.05
2017-09-24T04:10:55.310Z,935.02
2017-09-24T04:11:23.344Z,935.08
2017-09-24T04:11:51.406Z,934.95
2017-09-24T04:12:19.331Z,935
2017-09-24T04:12:47.462Z,935.01
2017-09-24T04:13:15.589Z,935
2017-09-24T04:13:43.477Z,934.96
2017-09-24T04:14:11.398Z,935
2017-09-24T04:14:39.398Z,934.98
2017-09-24T04:15:07.455Z,934.99
2017-09-24T04:15:35.498Z,934.97
2017-09-24T04:16:03.533Z,935.02
2017-09-24T04:16:31.662Z,934.97
2017-09-24T04:16:59.575Z,934.97
2017-09-24T04:17:27.723Z,934.99
2017-09-24T04:17:55.654Z,934.95
2017-09-24T04:18:23.477Z,934.97
2017-09-24T04:18:51.590Z,934.97
2017-09-24T04:19:19.582Z,934.94
2017-09-24T04:19:47.814Z,934.93
2017-09-24T04:20:15.874Z,934.94
2017-09-24T04:20:43.693Z,934.94
2017-09-24T04:21:11.852Z,934.93
2017-09-24T04:21:39.775Z,934.95
2017-09-24T04:22:07.725Z,934.91
2017-09-24T04:22:35.772Z,934.92
2017-09-24T04:23:03.826Z,934.89
2017-09-24T04:23:31.865Z,934.96
2017-09-24T04:23:59.807Z,934.94
2017-09-24T04:24:27.921Z,934.93
2017-09-24T04:24:55.855Z,934.92
2017-09-24T04:25:23.672Z,934.94
2017-09-24T04:25:51.692Z,934.86
2017-09-24T04:26:19.713Z,934.9
2017-09-24T04:26:47.619Z,934.87
2017-09-24T04:27:15.648Z,934.9
2017-09-24T04:27:43.575Z,934.89
2017-09-24T04:28:11.706Z,934.93
2017-09-24T04:28:39.852Z,934.84
2017-09-24T04:29:07.892Z,934.82
2017-09-24T04:29:35.833Z,934.8
2017-09-24T04:30:03.889Z,934.8
2017-09-24T04:30:31.923Z,934.8
2017-09-24T04:30:59.845Z,934.78
2017-09-24T04:31:27.903Z,934.82
2017-09-24T04:31:55.929Z,934.75
2017-09-24T04:32:24.075Z,934.83
2017-09-24T04:32:52.108Z,934.7
2017-09-24T04:33:20.124Z,934.75
2017-09-24T04:33:48.165Z,934.72
2017-09-24T04:34:16.285Z,934.76
2017-09-24T04:34:44.527Z,934.73
2017-09-24T04:35:12.641Z,934.71
2017-09-24T04:35:40.671Z,934.71
2017-09-24T04:36:08.710Z,934.73
2017-09-24T04:36:36.647Z,934.73
2017-09-24T04:37:04.656Z,934.7
2017-09-24T04:37:32.575Z,934.73
2017-09-24T04:38:00.615Z,934.74
2017-09-24T04:38:28.649Z,934.74
2017-09-24T04:38:56.471Z,934.74
2017-09-24T04:39:24.422Z,934.76
2017-09-24T04:39:52.544Z,934.81
2017-09-24T04:40:20.583Z,934.75
2017-09-24T04:40:48.514Z,934.79
2017-09-24T04:41:16.555Z,934.78
2017-09-24T04:41:44.503Z,934.76
2017-09-24T04:42:12.682Z,934.76
2017-09-24T04:42:40.614Z,934.74
2017-09-24T04:43:08.548Z,934.73
2017-09-24T04:43:36.618Z,934.74
2017-09-24T04:44:04.653Z,934.74
2017-09-24T04:44:32.672Z,934.77
2017-09-24T04:45:00.895Z,934.76
2017-09-24T04:45:28.917Z,934.74
2017-09-24T04:45:57.082Z,934.73
2017-09-24T04:46:25.040Z,934.7
2017-09-24T04:46:52.955Z,934.73
2017-09-24T04:47:20.900Z,934.7
2017-09-24T04:47:49.046Z,934.69
2017-09-24T04:48:17.175Z,934.68
2017-09-24T04:48:45.330Z,934.67
2017-09-24T04:49:13.471Z,934.67
2017-09-24T04:49:41.284Z,934.57
2017-09-24T04:50:09.431Z,934.68
2017-09-24T04:50:37.546Z,934.64
2017-09-24T04:51:05.686Z,934.65
2017-09-24T04:51:33.628Z,934.65
2017-09-24T04:52:01.647Z,934.67
2017-09-24T04:52:29.603Z,934.62
2017-09-24T04:52:57.746Z,934.66
2017-09-24T04:53:25.866Z,934.64
2017-09-24T04:53:53.787Z,934.68
2017-09-24T04:54:21.948Z,934.64
2017-09-24T04:54:49.933Z,934.65
2017-09-24T04:55:17.968Z,934.69
2017-09-24T04:55:45.983Z,934.67
2017-09-24T04:56:14.025Z,934.66
2017-09-24T04:56:41.954Z,934.68
2017-09-24T04:57:10.009Z,934.71
2017-09-24T04:57:38.151Z,934.66
2017-09-24T04:58:06.279Z,934.66
2017-09-24T04:58:34.432Z,934.68
2017-09-24T04:59:02.583Z,934.67
2017-09-24T04:59:30.544Z,934.66
2017-09-24T04:59:58.664Z,934.62
2017-09-24T05:00:26.702Z,934.62
2017-09-24T05:00:54.747Z,934.6
2017-09-24T05:01:22.771Z,934.6
2017-09-24T05:01:50.798Z,934.63
2017-09-24T05:02:18.832Z,934.62
2017-09-24T05:02:46.990Z,934.6
2017-09-24T05:03:15.044Z,934.65
2017-09-24T05:03:43.178Z,934.62
2017-09-24T05:04:11.296Z,934.61
2017-09-24T05:04:39.212Z,934.58
2017-09-24T05:05:07.440Z,934.55
2017-09-24T05:05:35.385Z,934.56
2017-09-24T05:06:03.508Z,934.62
2017-09-24T05:06:31.657Z,934.53
2017-09-24T05:06:59.805Z,934.57
2017-09-24T05:07:27.728Z,934.54
2017-09-24T05:07:55.670Z,934.57
2017-09-24T05:08:23.629Z,934.53
2017-09-24T05:08:51.978Z,934.57
2017-09-24T05:09:20.192Z,934.56
2017-09-24T05:09:48.143Z,934.51
2017-09-24T05:10:16.065Z,934.49
2017-09-24T05:10:44.082Z,934.49
2017-09-24T05:11:12.015Z,934.52
2017-09-24T05:11:40.057Z,934.52
2017-09-24T05:12:07.993Z,934.53
2017-09-24T05:12:36.116Z,934.47
2017-09-24T05:13:04.071Z,934.53
2017-09-24T05:13:31.892Z,934.57
2017-09-24T05:13:59.717Z,934.54
2017-09-24T05:14:27.660Z,934.54
2017-09-24T05:14:55.795Z,934.53
2017-09-24T05:15:23.808Z,934.51
2017-09-24T05:15:51.747Z,934.51
2017-09-24T05:16:19.698Z,934.52
2017-09-24T05:16:47.732Z,934.52
2017-09-24T05:17:15.565Z,934.51
2017-09-24T05:17:43.624Z,934.46
2017-09-24T05:18:11.665Z,934.48
2017-09-24T05:18:39.712Z,934.46
2017-09-24T05:19:07.657Z,934.47
2017-09-24T05:19:35.712Z,934.49
2017-09-24T05:20:03.871Z,934.53
2017-09-24T05:20:32.004Z,934.47
2017-09-24T05:20:59.930Z,934.46
2017-09-24T05:21:27.959Z,934.5
2017-09-24T05:21:55.925Z,934.47
2017-09-24T05:22:24.086Z,934.44
2017-09-24T05:22:52.125Z,934.48
2017-09-24T05:23:19.932Z,934.53
2017-09-24T05:23:47.991Z,934.47
2017-09-24T05:24:15.923Z,934.53
2017-09-24T05:24:43.872Z,934.48
2017-09-24T05:25:12.191Z,934.48
2017-09-24T05:25:40.229Z,934.49
2017-09-24T05:26:08.365Z,934.47
2017-09-24T05:26:36.175Z,934.47
2017-09-24T05:27:04.211Z,934.45
2017-09-24T05:27:32.249Z,934.48
2017-09-24T05:28:00.288Z,934.43
2017-09-24T05:28:28.338Z,934.43
2017-09-24T05:28:56.458Z,934.42
2017-09-24T05:29:24.481Z,934.44
2017-09-24T05:29:52.427Z,934.46
2017-09-24T05:30:20.573Z,934.4
2017-09-24T05:30:48.616Z,934.41
2017-09-24T05:31:16.577Z,934.42
2017-09-24T05:31:44.394Z,934.35
2017-09-24T05:32:12.352Z,934.39
2017-09-24T05:32:40.499Z,934.37
2017-09-24T05:33:08.642Z,934.34
2017-09-24T05:33:36.677Z,934.35
2017-09-24T05:34:04.720Z,934.36
2017-09-24T05:34:32.847Z,934.36
2017-09-24T05:35:00.990Z,934.32
2017-09-24T05:35:29.140Z,934.34
2017-09-24T05:35:57.163Z,934.29
2017-09-24T05:36:25.194Z,934.32
2017-09-24T05:36:53.313Z,934.28
2017-09-24T05:37:21.431Z,934.29
2017-09-24T05:37:49.351Z,934.28
2017-09-24T05:38:17.075Z,934.25
2017-09-24T05:38:45.289Z,934.27
2017-09-24T05:39:13.352Z,934.28
2017-09-24T05:39:41.202Z,934.3
2017-09-24T05:40:09.504Z,934.29
2017-09-24T05:40:37.425Z,934.25
2017-09-24T05:41:05.489Z,934.25
2017-09-24T05:41:33.516Z,934.26
2017-09-24T05:42:01.528Z,934.25
2017-09-24T05:42:29.545Z,934.21
2017-09-24T05:42:57.509Z,934.23
2017-09-24T05:43:25.652Z,934.24
2017-09-24T05:43:53.517Z,934.23
2017-09-24T05:44:21.528Z,934.22
2017-09-24T05:44:49.447Z,934.19
2017-09-24T05:45:17.576Z,934.22
2017-09-24T05:45:45.697Z,934.2
2017-09-24T05:46:13.655Z,934.21
2017-09-24T05:46:41.707Z,934.17
2017-09-24T05:47:09.630Z,934.18
2017-09-24T05:47:37.668Z,934.2
2017-09-24T05:48:05.834Z,934.19
2017-09-24T05:48:33.884Z,934.13
2017-09-24T05:49:01.803Z,934.18
2017-09-24T05:49:29.834Z,934.18
2017-09-24T05:49:57.950Z,934.2
2017-09-24T05:50:26.098Z,934.18